sensor_id;sensor_type;location;lat;lon;timestamp;P1;durP1;ratioP1;P2;durP2;ratioP2
34184;SDS011;20454;48.100;11.776;2022-10-16T00:01:06;4.00;;;2.15;;
34184;SDS011;20454;48.100;11.776;2022-10-16T00:03:38;1.55;;;1.45;;
34184;SDS011;20454;48.100;11.776;2022-10-16T00:06:05;3.25;;;1.45;;
34184;SDS011;20454;48.100;11.776;2022-10-16T00:08:32;1.90;;;1.45;;
34184;SDS011;20454;48.100;11.776;2022-10-16T00:11:02;2.53;;;1.50;;
34184;SDS011;20454;48.100;11.776;2022-10-16T00:13:43;2.80;;;1.50;;
34184;SDS011;20454;48.100;11.776;2022-10-16T00:16:10;2.40;;;1.30;;
34184;SDS011;20454;48.100;11.776;2022-10-16T00:18:38;2.13;;;1.40;;
34184;SDS011;20454;48.100;11.776;2022-10-16T00:21:05;1.35;;;0.85;;
34184;SDS011;20454;48.100;11.776;2022-10-16T00:23:37;5.78;;;1.05;;
34184;SDS011;20454;48.100;11.776;2022-10-16T00:26:05;1.00;;;0.95;;
34184;SDS011;20454;48.100;11.776;2022-10-16T00:28:34;1.20;;;1.10;;
34184;SDS011;20454;48.100;11.776;2022-10-16T00:31:07;1.25;;;1.00;;
34184;SDS011;20454;48.100;11.776;2022-10-16T00:33:37;2.03;;;1.13;;
34184;SDS011;20454;48.100;11.776;2022-10-16T00:36:05;2.90;;;1.42;;
34184;SDS011;20454;48.100;11.776;2022-10-16T00:38:33;5.15;;;1.40;;
34184;SDS011;20454;48.100;11.776;2022-10-16T00:40:59;2.28;;;1.92;;
34184;SDS011;20454;48.100;11.776;2022-10-16T00:43:36;2.35;;;1.08;;
34184;SDS011;20454;48.100;11.776;2022-10-16T00:46:02;2.10;;;1.10;;
34184;SDS011;20454;48.100;11.776;2022-10-16T00:48:35;2.92;;;1.00;;
34184;SDS011;20454;48.100;11.776;2022-10-16T00:51:01;1.00;;;0.90;;
34184;SDS011;20454;48.100;11.776;2022-10-16T00:53:29;1.25;;;1.15;;
34184;SDS011;20454;48.100;11.776;2022-10-16T00:55:55;3.30;;;1.58;;
34184;SDS011;20454;48.100;11.776;2022-10-16T00:58:21;1.15;;;1.05;;
34184;SDS011;20454;48.100;11.776;2022-10-16T01:00:47;0.98;;;0.95;;
34184;SDS011;20454;48.100;11.776;2022-10-16T01:03:27;1.30;;;1.10;;
34184;SDS011;20454;48.100;11.776;2022-10-16T01:09:02;2.40;;;1.00;;
34184;SDS011;20454;48.100;11.776;2022-10-16T01:29:03;2.05;;;1.33;;
34184;SDS011;20454;48.100;11.776;2022-10-16T01:31:48;1.08;;;0.82;;
34184;SDS011;20454;48.100;11.776;2022-10-16T01:34:22;1.38;;;1.27;;
34184;SDS011;20454;48.100;11.776;2022-10-16T01:37:01;3.05;;;1.95;;
34184;SDS011;20454;48.100;11.776;2022-10-16T01:39:36;2.28;;;1.70;;
34184;SDS011;20454;48.100;11.776;2022-10-16T01:42:08;3.58;;;1.52;;
34184;SDS011;20454;48.100;11.776;2022-10-16T01:44:40;2.10;;;1.80;;
34184;SDS011;20454;48.100;11.776;2022-10-16T01:47:08;3.63;;;1.20;;
34184;SDS011;20454;48.100;11.776;2022-10-16T01:49:36;2.15;;;1.65;;
34184;SDS011;20454;48.100;11.776;2022-10-16T01:52:05;2.58;;;1.20;;
34184;SDS011;20454;48.100;11.776;2022-10-16T01:54:36;1.15;;;1.05;;
34184;SDS011;20454;48.100;11.776;2022-10-16T01:57:06;1.10;;;1.00;;
34184;SDS011;20454;48.100;11.776;2022-10-16T01:59:35;1.08;;;0.93;;
34184;SDS011;20454;48.100;11.776;2022-10-16T02:02:06;1.55;;;1.08;;
34184;SDS011;20454;48.100;11.776;2022-10-16T02:04:36;1.00;;;1.00;;
34184;SDS011;20454;48.100;11.776;2022-10-16T02:07:10;8.75;;;1.13;;
34184;SDS011;20454;48.100;11.776;2022-10-16T02:09:37;1.80;;;1.10;;
34184;SDS011;20454;48.100;11.776;2022-10-16T02:12:05;3.42;;;1.55;;
34184;SDS011;20454;48.100;11.776;2022-10-16T02:14:54;1.23;;;0.80;;
34184;SDS011;20454;48.100;11.776;2022-10-16T02:17:21;1.02;;;1.02;;
34184;SDS011;20454;48.100;11.776;2022-10-16T02:19:48;1.05;;;0.93;;
34184;SDS011;20454;48.100;11.776;2022-10-16T02:22:19;1.17;;;1.08;;
34184;SDS011;20454;48.100;11.776;2022-10-16T02:25:08;3.60;;;0.80;;
34184;SDS011;20454;48.100;11.776;2022-10-16T02:27:55;0.82;;;0.82;;
34184;SDS011;20454;48.100;11.776;2022-10-16T02:30:57;0.93;;;0.93;;
34184;SDS011;20454;48.100;11.776;2022-10-16T02:33:28;2.25;;;1.33;;
34184;SDS011;20454;48.100;11.776;2022-10-16T02:35:55;1.48;;;1.38;;
34184;SDS011;20454;48.100;11.776;2022-10-16T02:38:23;1.25;;;1.08;;
34184;SDS011;20454;48.100;11.776;2022-10-16T02:40:50;1.70;;;1.60;;
34184;SDS011;20454;48.100;11.776;2022-10-16T02:43:16;1.92;;;1.83;;
34184;SDS011;20454;48.100;11.776;2022-10-16T02:45:42;2.42;;;2.22;;
34184;SDS011;20454;48.100;11.776;2022-10-16T02:48:08;2.28;;;2.10;;
34184;SDS011;20454;48.100;11.776;2022-10-16T02:50:34;2.47;;;1.77;;
34184;SDS011;20454;48.100;11.776;2022-10-16T02:53:00;3.63;;;1.65;;
34184;SDS011;20454;48.100;11.776;2022-10-16T02:55:26;2.33;;;1.50;;
34184;SDS011;20454;48.100;11.776;2022-10-16T02:57:52;2.03;;;1.67;;
34184;SDS011;20454;48.100;11.776;2022-10-16T03:00:19;5.30;;;1.30;;
34184;SDS011;20454;48.100;11.776;2022-10-16T03:02:45;1.73;;;1.23;;
34184;SDS011;20454;48.100;11.776;2022-10-16T03:05:12;1.08;;;1.05;;
34184;SDS011;20454;48.100;11.776;2022-10-16T03:07:38;1.17;;;1.13;;
34184;SDS011;20454;48.100;11.776;2022-10-16T03:10:04;1.17;;;1.15;;
34184;SDS011;20454;48.100;11.776;2022-10-16T03:12:30;1.60;;;1.50;;
34184;SDS011;20454;48.100;11.776;2022-10-16T03:14:56;1.50;;;1.40;;
34184;SDS011;20454;48.100;11.776;2022-10-16T03:17:22;1.10;;;1.10;;
34184;SDS011;20454;48.100;11.776;2022-10-16T03:19:49;2.72;;;1.60;;
34184;SDS011;20454;48.100;11.776;2022-10-16T03:22:15;1.60;;;1.50;;
34184;SDS011;20454;48.100;11.776;2022-10-16T03:24:41;2.40;;;2.20;;
34184;SDS011;20454;48.100;11.776;2022-10-16T03:27:07;2.53;;;2.15;;
34184;SDS011;20454;48.100;11.776;2022-10-16T03:29:32;1.83;;;1.73;;
34184;SDS011;20454;48.100;11.776;2022-10-16T03:31:58;1.77;;;1.67;;
34184;SDS011;20454;48.100;11.776;2022-10-16T03:34:25;1.80;;;1.70;;
34184;SDS011;20454;48.100;11.776;2022-10-16T03:36:51;2.63;;;2.03;;
34184;SDS011;20454;48.100;11.776;2022-10-16T03:39:19;2.53;;;2.28;;
34184;SDS011;20454;48.100;11.776;2022-10-16T03:41:44;2.05;;;1.95;;
34184;SDS011;20454;48.100;11.776;2022-10-16T03:44:11;2.42;;;2.22;;
34184;SDS011;20454;48.100;11.776;2022-10-16T03:46:37;4.13;;;2.00;;
34184;SDS011;20454;48.100;11.776;2022-10-16T03:49:03;3.35;;;1.60;;
34184;SDS011;20454;48.100;11.776;2022-10-16T03:51:29;2.38;;;1.40;;
34184;SDS011;20454;48.100;11.776;2022-10-16T03:53:55;1.60;;;1.50;;
34184;SDS011;20454;48.100;11.776;2022-10-16T03:56:20;2.55;;;1.60;;
34184;SDS011;20454;48.100;11.776;2022-10-16T03:58:46;1.52;;;1.42;;
34184;SDS011;20454;48.100;11.776;2022-10-16T05:33:05;1.10;;;1.00;;
34184;SDS011;20454;48.100;11.776;2022-10-16T05:35:31;1.05;;;0.95;;
34184;SDS011;20454;48.100;11.776;2022-10-16T05:37:56;2.13;;;1.10;;
34184;SDS011;20454;48.100;11.776;2022-10-16T05:40:22;0.80;;;0.80;;
34184;SDS011;20454;48.100;11.776;2022-10-16T05:42:48;1.10;;;0.85;;
34184;SDS011;20454;48.100;11.776;2022-10-16T05:45:14;0.88;;;0.88;;
34184;SDS011;20454;48.100;11.776;2022-10-16T05:47:39;1.20;;;1.00;;
34184;SDS011;20454;48.100;11.776;2022-10-16T05:50:05;1.13;;;1.02;;
34184;SDS011;20454;48.100;11.776;2022-10-16T05:52:31;0.82;;;0.80;;
34184;SDS011;20454;48.100;11.776;2022-10-16T05:54:57;1.00;;;1.00;;
34184;SDS011;20454;48.100;11.776;2022-10-16T05:57:23;3.10;;;1.20;;
34184;SDS011;20454;48.100;11.776;2022-10-16T05:59:48;1.08;;;1.00;;
34184;SDS011;20454;48.100;11.776;2022-10-16T06:02:14;1.20;;;1.10;;
34184;SDS011;20454;48.100;11.776;2022-10-16T06:04:40;1.85;;;1.10;;
34184;SDS011;20454;48.100;11.776;2022-10-16T06:07:06;1.30;;;1.15;;
34184;SDS011;20454;48.100;11.776;2022-10-16T06:09:32;1.00;;;1.00;;
34184;SDS011;20454;48.100;11.776;2022-10-16T06:11:58;0.90;;;0.90;;
34184;SDS011;20454;48.100;11.776;2022-10-16T06:14:24;0.93;;;0.82;;
34184;SDS011;20454;48.100;11.776;2022-10-16T06:16:50;1.25;;;1.15;;
34184;SDS011;20454;48.100;11.776;2022-10-16T06:19:15;1.38;;;1.27;;
34184;SDS011;20454;48.100;11.776;2022-10-16T06:21:42;1.20;;;1.10;;
34184;SDS011;20454;48.100;11.776;2022-10-16T06:24:08;0.80;;;0.80;;
34184;SDS011;20454;48.100;11.776;2022-10-16T06:26:35;1.15;;;1.10;;
34184;SDS011;20454;48.100;11.776;2022-10-16T06:29:01;1.50;;;1.30;;
34184;SDS011;20454;48.100;11.776;2022-10-16T06:31:27;1.10;;;0.90;;
34184;SDS011;20454;48.100;11.776;2022-10-16T06:33:56;4.00;;;1.10;;
34184;SDS011;20454;48.100;11.776;2022-10-16T06:36:23;4.18;;;1.02;;
34184;SDS011;20454;48.100;11.776;2022-10-16T06:38:50;1.10;;;1.00;;
34184;SDS011;20454;48.100;11.776;2022-10-16T06:41:17;1.63;;;1.52;;
34184;SDS011;20454;48.100;11.776;2022-10-16T06:43:46;1.00;;;1.00;;
34184;SDS011;20454;48.100;11.776;2022-10-16T06:46:13;1.13;;;1.02;;
34184;SDS011;20454;48.100;11.776;2022-10-16T06:48:42;2.22;;;1.02;;
34184;SDS011;20454;48.100;11.776;2022-10-16T06:53:40;0.90;;;0.90;;
34184;SDS011;20454;48.100;11.776;2022-10-16T06:58:48;2.58;;;1.45;;
34184;SDS011;20454;48.100;11.776;2022-10-16T07:01:16;1.17;;;1.05;;
34184;SDS011;20454;48.100;11.776;2022-10-16T07:03:45;1.00;;;0.93;;
34184;SDS011;20454;48.100;11.776;2022-10-16T07:06:13;1.00;;;0.95;;
34184;SDS011;20454;48.100;11.776;2022-10-16T07:08:42;1.02;;;0.93;;
34184;SDS011;20454;48.100;11.776;2022-10-16T07:11:11;1.13;;;1.02;;
34184;SDS011;20454;48.100;11.776;2022-10-16T07:13:43;1.05;;;0.95;;
34184;SDS011;20454;48.100;11.776;2022-10-16T07:16:12;1.55;;;1.45;;
34184;SDS011;20454;48.100;11.776;2022-10-16T07:18:40;1.02;;;0.93;;
34184;SDS011;20454;48.100;11.776;2022-10-16T07:21:10;1.83;;;1.73;;
34184;SDS011;20454;48.100;11.776;2022-10-16T07:23:42;2.67;;;2.47;;
34184;SDS011;20454;48.100;11.776;2022-10-16T08:36:06;1.23;;;1.13;;
34184;SDS011;20454;48.100;11.776;2022-10-16T08:38:33;2.45;;;1.25;;
34184;SDS011;20454;48.100;11.776;2022-10-16T08:41:09;1.33;;;1.20;;
34184;SDS011;20454;48.100;11.776;2022-10-16T08:44:28;2.92;;;1.35;;
34184;SDS011;20454;48.100;11.776;2022-10-16T08:47:07;1.20;;;1.10;;
34184;SDS011;20454;48.100;11.776;2022-10-16T08:49:58;2.00;;;1.20;;
34184;SDS011;20454;48.100;11.776;2022-10-16T08:52:34;1.33;;;1.23;;
34184;SDS011;20454;48.100;11.776;2022-10-16T08:55:04;1.92;;;1.20;;
34184;SDS011;20454;48.100;11.776;2022-10-16T08:57:30;1.10;;;1.00;;
34184;SDS011;20454;48.100;11.776;2022-10-16T09:00:00;1.42;;;1.33;;
34184;SDS011;20454;48.100;11.776;2022-10-16T09:02:46;1.75;;;1.45;;
34184;SDS011;20454;48.100;11.776;2022-10-16T09:08:39;1.00;;;1.00;;
34184;SDS011;20454;48.100;11.776;2022-10-16T09:12:08;0.93;;;0.93;;
34184;SDS011;20454;48.100;11.776;2022-10-16T09:17:37;1.20;;;1.10;;
34184;SDS011;20454;48.100;11.776;2022-10-16T09:23:07;1.25;;;1.15;;
34184;SDS011;20454;48.100;11.776;2022-10-16T09:25:45;1.50;;;1.27;;
34184;SDS011;20454;48.100;11.776;2022-10-16T09:28:14;1.45;;;1.30;;
34184;SDS011;20454;48.100;11.776;2022-10-16T09:30:42;1.92;;;1.02;;
34184;SDS011;20454;48.100;11.776;2022-10-16T09:33:10;1.13;;;1.02;;
34184;SDS011;20454;48.100;11.776;2022-10-16T09:35:38;1.15;;;0.88;;
34184;SDS011;20454;48.100;11.776;2022-10-16T09:38:47;2.05;;;0.98;;
34184;SDS011;20454;48.100;11.776;2022-10-16T09:49:01;0.70;;;0.70;;
34184;SDS011;20454;48.100;11.776;2022-10-16T09:51:31;0.77;;;0.77;;
34184;SDS011;20454;48.100;11.776;2022-10-16T09:56:38;2.70;;;1.17;;
34184;SDS011;20454;48.100;11.776;2022-10-16T09:59:11;4.88;;;1.05;;
34184;SDS011;20454;48.100;11.776;2022-10-16T10:01:41;1.42;;;1.25;;
34184;SDS011;20454;48.100;11.776;2022-10-16T10:04:16;1.85;;;0.80;;
34184;SDS011;20454;48.100;11.776;2022-10-16T10:06:51;2.25;;;0.80;;
34184;SDS011;20454;48.100;11.776;2022-10-16T10:09:24;0.93;;;0.80;;
34184;SDS011;20454;48.100;11.776;2022-10-16T10:11:55;2.83;;;0.90;;
34184;SDS011;20454;48.100;11.776;2022-10-16T10:14:31;0.77;;;0.75;;
34184;SDS011;20454;48.100;11.776;2022-10-16T10:17:17;0.57;;;0.57;;
34184;SDS011;20454;48.100;11.776;2022-10-16T10:19:49;0.73;;;0.73;;
34184;SDS011;20454;48.100;11.776;2022-10-16T10:22:26;0.90;;;0.70;;
34184;SDS011;20454;48.100;11.776;2022-10-16T10:25:14;1.00;;;0.70;;
34184;SDS011;20454;48.100;11.776;2022-10-16T10:33:53;2.42;;;0.70;;
34184;SDS011;20454;48.100;11.776;2022-10-16T10:36:43;3.25;;;0.75;;
34184;SDS011;20454;48.100;11.776;2022-10-16T10:39:22;0.70;;;0.70;;
34184;SDS011;20454;48.100;11.776;2022-10-16T10:42:08;0.63;;;0.60;;
34184;SDS011;20454;48.100;11.776;2022-10-16T10:47:45;1.80;;;0.68;;
34184;SDS011;20454;48.100;11.776;2022-10-16T10:52:52;1.30;;;0.38;;
34184;SDS011;20454;48.100;11.776;2022-10-16T10:56:02;0.52;;;0.52;;
34184;SDS011;20454;48.100;11.776;2022-10-16T10:58:50;1.13;;;0.60;;
34184;SDS011;20454;48.100;11.776;2022-10-16T11:01:35;0.43;;;0.40;;
34184;SDS011;20454;48.100;11.776;2022-10-16T11:09:53;1.20;;;0.43;;
34184;SDS011;20454;48.100;11.776;2022-10-16T11:12:36;0.30;;;0.30;;
34184;SDS011;20454;48.100;11.776;2022-10-16T11:20:21;2.25;;;0.60;;
34184;SDS011;20454;48.100;11.776;2022-10-16T11:25:39;1.80;;;0.87;;
34184;SDS011;20454;48.100;11.776;2022-10-16T11:31:00;0.63;;;0.60;;
34184;SDS011;20454;48.100;11.776;2022-10-16T11:39:24;0.43;;;0.43;;
34184;SDS011;20454;48.100;11.776;2022-10-16T11:41:53;0.77;;;0.70;;
34184;SDS011;20454;48.100;11.776;2022-10-16T11:44:48;1.75;;;0.60;;
34184;SDS011;20454;48.100;11.776;2022-10-16T11:47:45;3.25;;;0.50;;
34184;SDS011;20454;48.100;11.776;2022-10-16T11:50:28;2.25;;;0.40;;
34184;SDS011;20454;48.100;11.776;2022-10-16T11:56:27;0.50;;;0.30;;
34184;SDS011;20454;48.100;11.776;2022-10-16T11:59:10;0.47;;;0.40;;
34184;SDS011;20454;48.100;11.776;2022-10-16T12:08:22;0.77;;;0.77;;
34184;SDS011;20454;48.100;11.776;2022-10-16T12:10:41;0.38;;;0.30;;
34184;SDS011;20454;48.100;11.776;2022-10-16T12:16:05;0.80;;;0.50;;
34184;SDS011;20454;48.100;11.776;2022-10-16T12:18:31;0.50;;;0.50;;
34184;SDS011;20454;48.100;11.776;2022-10-16T12:20:57;1.65;;;0.55;;
34184;SDS011;20454;48.100;11.776;2022-10-16T12:23:29;0.50;;;0.40;;
34184;SDS011;20454;48.100;11.776;2022-10-16T12:25:56;0.40;;;0.40;;
34184;SDS011;20454;48.100;11.776;2022-10-16T12:28:42;0.50;;;0.50;;
34184;SDS011;20454;48.100;11.776;2022-10-16T12:31:11;0.30;;;0.30;;
34184;SDS011;20454;48.100;11.776;2022-10-16T12:33:37;6.85;;;0.40;;
34184;SDS011;20454;48.100;11.776;2022-10-16T12:36:12;0.65;;;0.50;;
34184;SDS011;20454;48.100;11.776;2022-10-16T12:38:51;0.30;;;0.30;;
34184;SDS011;20454;48.100;11.776;2022-10-16T12:44:25;2.22;;;0.50;;
34184;SDS011;20454;48.100;11.776;2022-10-16T12:46:56;0.40;;;0.40;;
34184;SDS011;20454;48.100;11.776;2022-10-16T12:49:28;0.60;;;0.60;;
34184;SDS011;20454;48.100;11.776;2022-10-16T12:51:56;0.63;;;0.50;;
34184;SDS011;20454;48.100;11.776;2022-10-16T12:54:27;0.40;;;0.40;;
34184;SDS011;20454;48.100;11.776;2022-10-16T13:00:12;0.60;;;0.60;;
34184;SDS011;20454;48.100;11.776;2022-10-16T13:05:55;1.10;;;1.00;;
34184;SDS011;20454;48.100;11.776;2022-10-16T13:08:58;0.90;;;0.50;;
34184;SDS011;20454;48.100;11.776;2022-10-16T13:14:32;0.60;;;0.60;;
34184;SDS011;20454;48.100;11.776;2022-10-16T13:17:14;2.33;;;0.52;;
34184;SDS011;20454;48.100;11.776;2022-10-16T13:26:06;0.50;;;0.30;;
34184;SDS011;20454;48.100;11.776;2022-10-16T13:29:05;4.28;;;0.50;;
34184;SDS011;20454;48.100;11.776;2022-10-16T13:31:31;0.80;;;0.70;;
34184;SDS011;20454;48.100;11.776;2022-10-16T13:33:59;0.40;;;0.40;;
34184;SDS011;20454;48.100;11.776;2022-10-16T13:36:27;29.58;;;1.58;;
34184;SDS011;20454;48.100;11.776;2022-10-16T13:39:13;0.70;;;0.63;;
34184;SDS011;20454;48.100;11.776;2022-10-16T13:41:42;2.05;;;0.60;;
34184;SDS011;20454;48.100;11.776;2022-10-16T13:44:15;2.05;;;0.50;;
34184;SDS011;20454;48.100;11.776;2022-10-16T13:46:45;0.30;;;0.30;;
34184;SDS011;20454;48.100;11.776;2022-10-16T13:49:12;1.20;;;0.40;;
34184;SDS011;20454;48.100;11.776;2022-10-16T13:51:53;1.88;;;0.40;;
34184;SDS011;20454;48.100;11.776;2022-10-16T13:54:24;0.45;;;0.40;;
34184;SDS011;20454;48.100;11.776;2022-10-16T13:56:52;0.60;;;0.50;;
34184;SDS011;20454;48.100;11.776;2022-10-16T13:59:32;1.05;;;0.50;;
34184;SDS011;20454;48.100;11.776;2022-10-16T14:02:00;0.55;;;0.40;;
34184;SDS011;20454;48.100;11.776;2022-10-16T14:04:54;1.50;;;1.40;;
34184;SDS011;20454;48.100;11.776;2022-10-16T14:07:29;0.77;;;0.77;;
34184;SDS011;20454;48.100;11.776;2022-10-16T14:10:18;0.80;;;0.60;;
34184;SDS011;20454;48.100;11.776;2022-10-16T14:12:59;0.90;;;0.40;;
34184;SDS011;20454;48.100;11.776;2022-10-16T14:15:29;0.50;;;0.50;;
34184;SDS011;20454;48.100;11.776;2022-10-16T14:17:57;1.35;;;0.47;;
34184;SDS011;20454;48.100;11.776;2022-10-16T14:20:25;0.43;;;0.43;;
34184;SDS011;20454;48.100;11.776;2022-10-16T14:23:01;0.50;;;0.50;;
34184;SDS011;20454;48.100;11.776;2022-10-16T14:50:38;0.52;;;0.50;;
34184;SDS011;20454;48.100;11.776;2022-10-16T14:53:08;0.75;;;0.55;;
34184;SDS011;20454;48.100;11.776;2022-10-16T14:55:39;0.70;;;0.60;;
34184;SDS011;20454;48.100;11.776;2022-10-16T14:58:09;2.13;;;0.70;;
34184;SDS011;20454;48.100;11.776;2022-10-16T15:00:46;0.50;;;0.50;;
34184;SDS011;20454;48.100;11.776;2022-10-16T15:03:12;1.13;;;1.05;;
34184;SDS011;20454;48.100;11.776;2022-10-16T15:05:39;1.10;;;0.85;;
34184;SDS011;20454;48.100;11.776;2022-10-16T15:08:04;1.40;;;0.90;;
34184;SDS011;20454;48.100;11.776;2022-10-16T15:10:31;6.78;;;0.80;;
34184;SDS011;20454;48.100;11.776;2022-10-16T15:13:04;1.02;;;1.02;;
34184;SDS011;20454;48.100;11.776;2022-10-16T15:15:32;0.60;;;0.60;;
34184;SDS011;20454;48.100;11.776;2022-10-16T15:18:10;1.30;;;1.00;;
34184;SDS011;20454;48.100;11.776;2022-10-16T15:20:36;0.90;;;0.90;;
34184;SDS011;20454;48.100;11.776;2022-10-16T15:23:05;1.77;;;1.20;;
34184;SDS011;20454;48.100;11.776;2022-10-16T15:25:42;1.10;;;1.05;;
34184;SDS011;20454;48.100;11.776;2022-10-16T15:28:11;1.17;;;1.08;;
34184;SDS011;20454;48.100;11.776;2022-10-16T15:30:38;0.77;;;0.77;;
34184;SDS011;20454;48.100;11.776;2022-10-16T15:33:04;0.65;;;0.63;;
34184;SDS011;20454;48.100;11.776;2022-10-16T15:35:38;2.95;;;0.98;;
34184;SDS011;20454;48.100;11.776;2022-10-16T15:38:04;2.45;;;0.70;;
34184;SDS011;20454;48.100;11.776;2022-10-16T15:40:29;4.18;;;0.77;;
34184;SDS011;20454;48.100;11.776;2022-10-16T15:42:55;0.73;;;0.73;;
34184;SDS011;20454;48.100;11.776;2022-10-16T15:45:21;1.08;;;1.00;;
34184;SDS011;20454;48.100;11.776;2022-10-16T15:47:47;1.13;;;0.70;;
34184;SDS011;20454;48.100;11.776;2022-10-16T15:50:14;2.78;;;0.80;;
34184;SDS011;20454;48.100;11.776;2022-10-16T15:52:40;1.15;;;1.05;;
34184;SDS011;20454;48.100;11.776;2022-10-16T15:55:08;1.85;;;0.77;;
34184;SDS011;20454;48.100;11.776;2022-10-16T15:57:36;0.80;;;0.80;;
34184;SDS011;20454;48.100;11.776;2022-10-16T16:00:06;1.42;;;0.70;;
34184;SDS011;20454;48.100;11.776;2022-10-16T16:02:38;0.73;;;0.70;;
34184;SDS011;20454;48.100;11.776;2022-10-16T16:05:06;0.70;;;0.70;;
34184;SDS011;20454;48.100;11.776;2022-10-16T16:07:37;0.80;;;0.80;;
34184;SDS011;20454;48.100;11.776;2022-10-16T16:10:04;1.70;;;1.00;;
34184;SDS011;20454;48.100;11.776;2022-10-16T16:12:33;1.02;;;0.90;;
34184;SDS011;20454;48.100;11.776;2022-10-16T16:15:00;1.67;;;1.20;;
34184;SDS011;20454;48.100;11.776;2022-10-16T16:17:25;0.95;;;0.93;;
34184;SDS011;20454;48.100;11.776;2022-10-16T16:19:51;1.30;;;1.20;;
34184;SDS011;20454;48.100;11.776;2022-10-16T16:22:17;0.88;;;0.82;;
34184;SDS011;20454;48.100;11.776;2022-10-16T16:24:43;1.27;;;1.17;;
34184;SDS011;20454;48.100;11.776;2022-10-16T16:27:09;1.13;;;1.02;;
34184;SDS011;20454;48.100;11.776;2022-10-16T16:29:35;2.38;;;1.30;;
34184;SDS011;20454;48.100;11.776;2022-10-16T16:32:01;1.17;;;1.00;;
34184;SDS011;20454;48.100;11.776;2022-10-16T16:34:27;1.25;;;1.15;;
34184;SDS011;20454;48.100;11.776;2022-10-16T16:36:54;4.75;;;4.43;;
34184;SDS011;20454;48.100;11.776;2022-10-16T16:39:20;4.10;;;3.40;;
34184;SDS011;20454;48.100;11.776;2022-10-16T16:41:47;5.57;;;3.80;;
34184;SDS011;20454;48.100;11.776;2022-10-16T16:44:14;4.45;;;4.15;;
34184;SDS011;20454;48.100;11.776;2022-10-16T16:46:41;3.75;;;3.55;;
34184;SDS011;20454;48.100;11.776;2022-10-16T16:49:09;3.67;;;3.38;;
34184;SDS011;20454;48.100;11.776;2022-10-16T16:51:37;2.03;;;1.92;;
34184;SDS011;20454;48.100;11.776;2022-10-16T17:41:31;3.65;;;3.35;;
34184;SDS011;20454;48.100;11.776;2022-10-16T17:43:58;4.88;;;3.97;;
34184;SDS011;20454;48.100;11.776;2022-10-16T17:46:25;4.88;;;4.20;;
34184;SDS011;20454;48.100;11.776;2022-10-16T17:48:52;3.85;;;3.55;;
34184;SDS011;20454;48.100;11.776;2022-10-16T17:51:20;3.25;;;3.05;;
34184;SDS011;20454;48.100;11.776;2022-10-16T17:53:50;4.05;;;3.65;;
34184;SDS011;20454;48.100;11.776;2022-10-16T17:56:18;4.18;;;3.78;;
34184;SDS011;20454;48.100;11.776;2022-10-16T17:58:47;3.65;;;3.30;;
34184;SDS011;20454;48.100;11.776;2022-10-16T18:01:19;3.88;;;3.60;;
34184;SDS011;20454;48.100;11.776;2022-10-16T18:03:52;9.77;;;3.05;;
34184;SDS011;20454;48.100;11.776;2022-10-16T18:06:31;4.80;;;3.50;;
34184;SDS011;20454;48.100;11.776;2022-10-16T18:08:58;3.65;;;3.35;;
34184;SDS011;20454;48.100;11.776;2022-10-16T18:11:25;3.25;;;2.95;;
34184;SDS011;20454;48.100;11.776;2022-10-16T18:13:51;3.15;;;2.90;;
34184;SDS011;20454;48.100;11.776;2022-10-16T18:16:22;2.38;;;2.22;;
34184;SDS011;20454;48.100;11.776;2022-10-16T18:18:48;3.42;;;2.38;;
34184;SDS011;20454;48.100;11.776;2022-10-16T18:21:15;3.78;;;2.20;;
34184;SDS011;20454;48.100;11.776;2022-10-16T18:23:43;2.88;;;2.67;;
34184;SDS011;20454;48.100;11.776;2022-10-16T18:26:10;1.80;;;1.70;;
34184;SDS011;20454;48.100;11.776;2022-10-16T18:28:37;3.38;;;2.50;;
34184;SDS011;20454;48.100;11.776;2022-10-16T18:31:06;4.50;;;1.80;;
34184;SDS011;20454;48.100;11.776;2022-10-16T18:33:38;2.28;;;2.10;;
34184;SDS011;20454;48.100;11.776;2022-10-16T18:36:06;3.20;;;2.30;;
34184;SDS011;20454;48.100;11.776;2022-10-16T18:38:34;2.33;;;1.75;;
34184;SDS011;20454;48.100;11.776;2022-10-16T18:41:01;5.25;;;2.08;;
34184;SDS011;20454;48.100;11.776;2022-10-16T18:43:30;1.45;;;1.35;;
34184;SDS011;20454;48.100;11.776;2022-10-16T18:45:57;1.50;;;1.40;;
34184;SDS011;20454;48.100;11.776;2022-10-16T18:48:25;1.65;;;1.55;;
34184;SDS011;20454;48.100;11.776;2022-10-16T18:50:52;1.80;;;1.70;;
34184;SDS011;20454;48.100;11.776;2022-10-16T18:53:18;1.75;;;1.65;;
34184;SDS011;20454;48.100;11.776;2022-10-16T18:55:51;1.60;;;1.50;;
34184;SDS011;20454;48.100;11.776;2022-10-16T18:58:17;2.13;;;1.90;;
34184;SDS011;20454;48.100;11.776;2022-10-16T19:00:43;1.80;;;1.42;;
34184;SDS011;20454;48.100;11.776;2022-10-16T19:03:09;2.65;;;1.50;;
34184;SDS011;20454;48.100;11.776;2022-10-16T19:05:34;3.33;;;1.92;;
34184;SDS011;20454;48.100;11.776;2022-10-16T19:08:00;1.75;;;1.65;;
34184;SDS011;20454;48.100;11.776;2022-10-16T19:10:26;2.13;;;1.70;;
34184;SDS011;20454;48.100;11.776;2022-10-16T19:12:52;2.08;;;1.48;;
34184;SDS011;20454;48.100;11.776;2022-10-16T19:15:17;1.50;;;1.40;;
34184;SDS011;20454;48.100;11.776;2022-10-16T19:17:43;4.00;;;2.10;;
34184;SDS011;20454;48.100;11.776;2022-10-16T19:20:09;1.58;;;1.48;;
34184;SDS011;20454;48.100;11.776;2022-10-16T19:22:35;2.40;;;1.95;;
34184;SDS011;20454;48.100;11.776;2022-10-16T19:25:20;2.28;;;2.00;;
34184;SDS011;20454;48.100;11.776;2022-10-16T19:27:50;2.60;;;2.40;;
34184;SDS011;20454;48.100;11.776;2022-10-16T19:30:16;2.53;;;2.33;;
34184;SDS011;20454;48.100;11.776;2022-10-16T19:32:43;1.92;;;1.83;;
34184;SDS011;20454;48.100;11.776;2022-10-16T19:35:10;3.10;;;2.00;;
34184;SDS011;20454;48.100;11.776;2022-10-16T19:37:36;3.42;;;2.00;;
34184;SDS011;20454;48.100;11.776;2022-10-16T19:40:03;2.20;;;2.00;;
34184;SDS011;20454;48.100;11.776;2022-10-16T19:42:29;2.53;;;2.10;;
34184;SDS011;20454;48.100;11.776;2022-10-16T19:44:55;3.38;;;1.45;;
34184;SDS011;20454;48.100;11.776;2022-10-16T19:47:21;3.03;;;1.73;;
34184;SDS011;20454;48.100;11.776;2022-10-16T19:49:48;2.47;;;1.85;;
34184;SDS011;20454;48.100;11.776;2022-10-16T19:52:14;3.95;;;1.40;;
34184;SDS011;20454;48.100;11.776;2022-10-16T19:54:41;1.60;;;1.48;;
34184;SDS011;20454;48.100;11.776;2022-10-16T19:57:07;2.70;;;1.20;;
34184;SDS011;20454;48.100;11.776;2022-10-16T19:59:33;1.50;;;1.40;;
34184;SDS011;20454;48.100;11.776;2022-10-16T20:01:59;2.63;;;1.73;;
34184;SDS011;20454;48.100;11.776;2022-10-16T20:04:25;4.78;;;1.58;;
34184;SDS011;20454;48.100;11.776;2022-10-16T20:06:51;1.67;;;1.35;;
34184;SDS011;20454;48.100;11.776;2022-10-16T20:09:16;3.10;;;1.60;;
34184;SDS011;20454;48.100;11.776;2022-10-16T20:11:42;6.30;;;1.95;;
34184;SDS011;20454;48.100;11.776;2022-10-16T20:14:09;3.30;;;1.63;;
34184;SDS011;20454;48.100;11.776;2022-10-16T20:16:35;3.80;;;1.30;;
34184;SDS011;20454;48.100;11.776;2022-10-16T20:19:01;1.20;;;1.00;;
34184;SDS011;20454;48.100;11.776;2022-10-16T20:21:29;1.70;;;1.60;;
34184;SDS011;20454;48.100;11.776;2022-10-16T20:23:58;1.23;;;1.13;;
34184;SDS011;20454;48.100;11.776;2022-10-16T20:26:25;1.52;;;1.42;;
34184;SDS011;20454;48.100;11.776;2022-10-16T20:28:51;1.30;;;1.20;;
34184;SDS011;20454;48.100;11.776;2022-10-16T20:31:22;1.55;;;1.27;;
34184;SDS011;20454;48.100;11.776;2022-10-16T20:36:19;1.40;;;1.30;;
34184;SDS011;20454;48.100;11.776;2022-10-16T20:38:46;1.58;;;1.48;;
34184;SDS011;20454;48.100;11.776;2022-10-16T20:41:13;1.48;;;1.38;;